Hauptseite
METAR-TAF:

METAR-TAF

Flughäfen :

Nouakchott, Mauretanien

Flughafen Nouakchott-Oumtounsy

Breite: 18-18-36N, Länge: 015-58-11W, Höhe: 3 m

Beobachtung

Neuester Wetterbericht von vor 29 Minuten, um 23:30 UTC
Wind 5 kt aus Nord, variierte zwischen Nord/Nordwest und Nordost
Temperatur 17°C
Luftfeuchtigkeit 72%
Luftdruck 1018 hPa
Sichtweite: 4000 m
Staubtreiben

METAR: GQNO 172330Z 01005KT 340V040 4000 BLDU NSC 17/12 Q1018 NOSIG

Zeit: 23:59 (23:59 UTC)

Prognose

Neuester Wetterbericht von vor 59 Minuten, um 23:00 UTC
Gültige Prognose vom 18 um 00 UTC bis 19 um 06 UTC
Wind 5 kt aus Nordost
Sichtweite: 6000 m
Übergehend zu
vom 18 um 08 UTC bis 18 um 10 UTC
Wind 15 kt aus Nordost
Sichtweite: 4000 m
Staubtreiben
Übergehend zu
vom 18 um 18 UTC bis 18 um 20 UTC
Wind 8 kt aus Nord/Nordost
Sichtweite: 6000 m

TAF: GQNO 172300Z 1800/1906 04005KT 6000 NSC BECMG 1808/1810 04015KT 4000 BLDU BECMG 1818/1820 03008KT 6000 NSW

Wetterbeobachtungen und Prognosen von mehr als 4000 Flughäfen (METAR und TAF Bericht).

Die verfügbaren Stationen werden durch gelbe und rote Markierungen auf der Karte dargestellt.

Führen Sie die Maus auf sie, um den Namen der Station zu sehen.

Darauf klicken, um die Beobachtung von Wetterbeobachtungen und Prognosen zu sehen.

Um die Karte zu ändern : klicken Sie auf den grünen Tasten mit einem schwarzen Kreuz Zum Vergrößern, auf den grünen Button mit einem Gedankenstrich zu verkleinern, oder auf die grünen Pfeile für benachbarte Karten.


METAR-TAF: